Wetterdaten: Woche 24.10.11 - 30.10.11 (KW43)
Datum Zeit Temp. Innen Temp. Aussen UV X Diff Temp. Feuchte Inne Feuchte Auss Sonnenschein Luftdruck Regen ab 0,1 Wind Sonnenschein T Regendauer Windben
24.10.2011 00:00 16,9 C 7,3 C 0,0 UV-I 0,0 C 46 % 77 % 0 % 1011,5 hPa 0,0 l/m 9,5 km/h (2 Bft) 0,00 h 0,00 h 10,8 km/h (2 Bft)
24.10.2011 01:00 16,8 C 6,9 C 0,0 UV-I 0,0 C 47 % 79 % 0 % 1011,3 hPa 0,0 l/m 8,5 km/h (2 Bft) 0,00 h 0,00 h 10,0 km/h (2 Bft)
24.10.2011 02:00 16,6 C 6,7 C 0,0 UV-I 0,0 C 47 % 79 % 0 % 1010,7 hPa 0,0 l/m 9,0 km/h (2 Bft) 0,00 h 0,00 h 11,2 km/h (2 Bft)
24.10.2011 03:00 16,5 C 6,4 C 0,0 UV-I 0,0 C 47 % 79 % 0 % 1010,3 hPa 0,0 l/m 7,8 km/h (2 Bft) 0,00 h 0,00 h 8,7 km/h (2 Bft)
24.10.2011 04:00 16,4 C 6,1 C 0,0 UV-I 0,0 C 47 % 80 % 0 % 1009,5 hPa 0,0 l/m 6,7 km/h (2 Bft) 0,00 h 0,00 h 8,0 km/h (2 Bft)
24.10.2011 05:00 16,3 C 5,8 C 0,0 UV-I 0,0 C 47 % 81 % 0 % 1009,0 hPa 0,0 l/m 6,6 km/h (2 Bft) 0,00 h 0,00 h 8,3 km/h (2 Bft)
24.10.2011 06:00 16,2 C 5,4 C 0,0 UV-I 0,0 C 48 % 83 % 0 % 1008,8 hPa 0,0 l/m 6,3 km/h (2 Bft) 0,00 h 0,00 h 7,6 km/h (2 Bft)
24.10.2011 07:00 16,0 C 5,1 C 0,0 UV-I 0,0 C 48 % 84 % 0 % 1008,9 hPa 0,0 l/m 7,4 km/h (2 Bft) 0,00 h 0,00 h 8,5 km/h (2 Bft)
24.10.2011 08:00 16,0 C 4,9 C 0,0 UV-I 0,0 C 48 % 85 % 0 % 1008,5 hPa 0,0 l/m 4,9 km/h (1 Bft) 0,00 h 0,00 h 6,2 km/h (2 Bft)
24.10.2011 09:00 16,0 C 5,5 C 0,0 UV-I 0,3 C 48 % 85 % 10 % 1008,2 hPa 0,0 l/m 11,2 km/h (2 Bft) 0,00 h 0,00 h 14,4 km/h (3 Bft)
24.10.2011 10:00 16,0 C 6,8 C 0,3 UV-I 3,1 C 48 % 82 % 87 % 1007,8 hPa 0,0 l/m 12,1 km/h (2 Bft) 0,83 h 0,00 h 14,0 km/h (3 Bft)
24.10.2011 11:00 16,2 C 8,7 C 0,6 UV-I 4,4 C 49 % 77 % 100 % 1007,0 hPa 0,0 l/m 12,0 km/h (2 Bft) 1,00 h 0,00 h 13,1 km/h (3 Bft)
24.10.2011 12:00 16,5 C 10,5 C 1,7 UV-I 4,5 C 49 % 70 % 100 % 1006,2 hPa 0,0 l/m 13,1 km/h (3 Bft) 1,00 h 0,00 h 13,4 km/h (3 Bft)
24.10.2011 13:00 17,3 C 11,8 C 2,7 UV-I 4,1 C 48 % 64 % 100 % 1005,7 hPa 0,0 l/m 13,8 km/h (3 Bft) 1,00 h 0,00 h 15,0 km/h (3 Bft)
24.10.2011 14:00 19,0 C 12,5 C 2,4 UV-I 3,7 C 45 % 62 % 100 % 1006,3 hPa 0,0 l/m 14,0 km/h (3 Bft) 1,00 h 0,00 h 14,8 km/h (3 Bft)
24.10.2011 15:00 20,1 C 12,9 C 1,6 UV-I 3,3 C 42 % 60 % 94 % 1005,8 hPa 0,0 l/m 13,4 km/h (3 Bft) 0,93 h 0,00 h 16,0 km/h (3 Bft)
24.10.2011 16:00 20,8 C 12,9 C 0,5 UV-I 2,8 C 41 % 60 % 79 % 1005,3 hPa 0,0 l/m 11,7 km/h (2 Bft) 1,00 h 0,00 h 12,2 km/h (2 Bft)
24.10.2011 17:00 20,5 C 12,0 C 0,0 UV-I 0,7 C 40 % 63 % 20 % 1004,5 hPa 0,0 l/m 8,1 km/h (2 Bft) 0,27 h 0,00 h 9,3 km/h (2 Bft)
24.10.2011 18:00 19,5 C 10,9 C 0,0 UV-I 0,0 C 42 % 68 % 0 % 1003,7 hPa 0,0 l/m 6,6 km/h (2 Bft) 0,00 h 0,00 h 8,0 km/h (2 Bft)
24.10.2011 19:00 18,6 C 10,5 C 0,0 UV-I 0,0 C 44 % 70 % 0 % 1003,5 hPa 0,0 l/m 6,9 km/h (2 Bft) 0,00 h 0,00 h 7,9 km/h (2 Bft)
24.10.2011 20:00 18,1 C 10,3 C 0,0 UV-I 0,0 C 45 % 70 % 0 % 1003,6 hPa 0,0 l/m 7,2 km/h (2 Bft) 0,00 h 0,00 h 8,8 km/h (2 Bft)
24.10.2011 21:00 17,7 C 10,3 C 0,0 UV-I 0,0 C 46 % 69 % 0 % 1003,3 hPa 0,0 l/m 5,7 km/h (1 Bft) 0,00 h 0,00 h 6,6 km/h (2 Bft)
24.10.2011 22:00 17,6 C 10,8 C 0,0 UV-I 0,0 C 46 % 67 % 0 % 1003,2 hPa 0,0 l/m 8,0 km/h (2 Bft) 0,00 h 0,00 h 9,2 km/h (2 Bft)
24.10.2011 23:00 17,6 C 11,8 C 0,0 UV-I 0,0 C 46 % 62 % 0 % 1003,3 hPa 0,0 l/m 13,3 km/h (3 Bft) 0,00 h 0,00 h 13,9 km/h (3 Bft)
25.10.2011 00:00 17,6 C 12,3 C 0,0 UV-I 0,0 C 46 % 60 % 0 % 1003,3 hPa 0,0 l/m 13,7 km/h (3 Bft) 0,00 h 0,00 h 15,7 km/h (3 Bft)
25.10.2011 01:00 17,6 C 12,3 C 0,0 UV-I 0,0 C 46 % 60 % 0 % 1003,1 hPa 0,0 l/m 13,3 km/h (3 Bft) 0,00 h 0,00 h 16,0 km/h (3 Bft)
25.10.2011 02:00 17,6 C 12,0 C 0,0 UV-I 0,0 C 45 % 62 % 0 % 1003,2 hPa 0,6 l/m 14,0 km/h (3 Bft) 0,00 h 0,40 h 15,3 km/h (3 Bft)
25.10.2011 03:00 17,5 C 10,5 C 0,0 UV-I 0,0 C 48 % 75 % 0 % 1003,1 hPa 0,1 l/m 10,2 km/h (2 Bft) 0,00 h 0,23 h 11,7 km/h (2 Bft)
25.10.2011 04:00 17,4 C 10,7 C 0,0 UV-I 0,0 C 48 % 73 % 0 % 1002,8 hPa 0,0 l/m 11,3 km/h (2 Bft) 0,00 h 0,00 h 14,0 km/h (3 Bft)
25.10.2011 05:00 17,4 C 10,7 C 0,0 UV-I 0,0 C 49 % 72 % 0 % 1002,4 hPa 0,0 l/m 8,4 km/h (2 Bft) 0,00 h 0,00 h 8,7 km/h (2 Bft)
25.10.2011 06:00 17,4 C 10,7 C 0,0 UV-I 0,0 C 49 % 70 % 0 % 1002,1 hPa 0,0 l/m 8,8 km/h (2 Bft) 0,00 h 0,00 h 10,4 km/h (2 Bft)
25.10.2011 07:00 17,4 C 10,6 C 0,0 UV-I 0,0 C 49 % 70 % 0 % 1002,0 hPa 0,0 l/m 9,4 km/h (2 Bft) 0,00 h 0,00 h 11,3 km/h (2 Bft)
25.10.2011 08:00 17,4 C 10,6 C 0,0 UV-I 0,0 C 49 % 70 % 0 % 1001,9 hPa 0,0 l/m 8,0 km/h (2 Bft) 0,00 h 0,03 h 9,0 km/h (2 Bft)
25.10.2011 09:00 17,4 C 10,1 C 0,0 UV-I 0,0 C 49 % 74 % 0 % 1002,0 hPa 0,2 l/m 10,0 km/h (2 Bft) 0,00 h 0,70 h 12,6 km/h (3 Bft)
25.10.2011 10:00 17,4 C 9,8 C 0,0 UV-I 0,0 C 49 % 77 % 0 % 1002,7 hPa 0,4 l/m 9,9 km/h (2 Bft) 0,00 h 1,00 h 12,3 km/h (3 Bft)
25.10.2011 11:00 17,4 C 9,6 C 0,1 UV-I 0,0 C 50 % 79 % 1 % 1002,8 hPa 0,4 l/m 8,4 km/h (2 Bft) 0,00 h 0,47 h 9,2 km/h (2 Bft)
25.10.2011 12:00 17,6 C 10,5 C 0,2 UV-I 0,1 C 50 % 75 % 3 % 1002,5 hPa 0,0 l/m 9,5 km/h (2 Bft) 0,00 h 0,13 h 10,5 km/h (2 Bft)
25.10.2011 13:00 17,6 C 10,8 C 0,0 UV-I 0,1 C 50 % 73 % 2 % 1002,1 hPa 0,0 l/m 5,6 km/h (1 Bft) 0,00 h 0,10 h 6,3 km/h (2 Bft)
25.10.2011 14:00 17,7 C 10,9 C 0,0 UV-I 0,0 C 50 % 73 % 0 % 1002,1 hPa 0,0 l/m 5,3 km/h (1 Bft) 0,00 h 0,20 h 6,1 km/h (2 Bft)
25.10.2011 15:00 17,7 C 11,4 C 0,0 UV-I 0,2 C 50 % 71 % 4 % 1001,3 hPa 0,0 l/m 5,6 km/h (1 Bft) 0,00 h 0,03 h 6,1 km/h (2 Bft)
25.10.2011 16:00 17,8 C 11,5 C 0,0 UV-I 0,0 C 50 % 70 % 0 % 1001,5 hPa 0,0 l/m 4,0 km/h (1 Bft) 0,00 h 0,17 h 4,9 km/h (1 Bft)
25.10.2011 17:00 17,7 C 11,6 C 0,0 UV-I 0,0 C 50 % 70 % 0 % 1001,4 hPa 0,0 l/m 2,0 km/h (1 Bft) 0,00 h 0,10 h 3,1 km/h (1 Bft)
25.10.2011 18:00 17,6 C 11,2 C 0,0 UV-I 0,0 C 50 % 72 % 0 % 1001,8 hPa 0,0 l/m 1,5 km/h (1 Bft) 0,00 h 0,13 h 2,0 km/h (1 Bft)
25.10.2011 19:00 17,6 C 11,3 C 0,0 UV-I 0,0 C 50 % 72 % 0 % 1002,1 hPa 0,0 l/m 4,8 km/h (1 Bft) 0,00 h 0,00 h 5,8 km/h (2 Bft)
25.10.2011 20:00 17,6 C 11,5 C 0,0 UV-I 0,0 C 50 % 71 % 0 % 1002,2 hPa 0,0 l/m 6,7 km/h (2 Bft) 0,00 h 0,00 h 7,2 km/h (2 Bft)
25.10.2011 21:00 17,6 C 11,4 C 0,0 UV-I 0,0 C 50 % 71 % 0 % 1002,3 hPa 0,0 l/m 5,2 km/h (1 Bft) 0,00 h 0,00 h 6,5 km/h (2 Bft)
25.10.2011 22:00 17,6 C 11,1 C 0,0 UV-I 0,0 C 50 % 72 % 0 % 1002,6 hPa 0,0 l/m 5,1 km/h (1 Bft) 0,00 h 0,00 h 5,6 km/h (1 Bft)
25.10.2011 23:00 17,5 C 10,7 C 0,0 UV-I 0,0 C 50 % 73 % 0 % 1003,0 hPa 0,0 l/m 3,1 km/h (1 Bft) 0,00 h 0,00 h 4,2 km/h (1 Bft)
26.10.2011 00:00 17,5 C 10,3 C 0,0 UV-I 0,0 C 50 % 76 % 0 % 1003,4 hPa 0,0 l/m 1,7 km/h (1 Bft) 0,00 h 0,03 h 2,7 km/h (1 Bft)
26.10.2011 01:00 17,4 C 9,9 C 0,0 UV-I 0,0 C 51 % 78 % 0 % 1003,7 hPa 0,0 l/m 2,2 km/h (1 Bft) 0,00 h 0,00 h 3,5 km/h (1 Bft)
26.10.2011 02:00 17,4 C 9,7 C 0,0 UV-I 0,0 C 51 % 80 % 0 % 1004,0 hPa 0,0 l/m 1,2 km/h (1 Bft) 0,00 h 0,00 h 1,8 km/h (1 Bft)
26.10.2011 03:00 17,4 C 9,6 C 0,0 UV-I 0,0 C 52 % 81 % 0 % 1004,6 hPa 0,0 l/m 1,1 km/h (0 Bft) 0,00 h 0,00 h 1,5 km/h (1 Bft)
26.10.2011 04:00 17,3 C 9,3 C 0,0 UV-I 0,0 C 52 % 83 % 0 % 1005,1 hPa 0,0 l/m 0,8 km/h (0 Bft) 0,00 h 0,00 h 1,4 km/h (1 Bft)
26.10.2011 05:00 17,2 C 8,7 C 0,0 UV-I 0,0 C 53 % 84 % 0 % 1005,8 hPa 0,0 l/m 0,2 km/h (0 Bft) 0,00 h 0,00 h 0,1 km/h (0 Bft)
26.10.2011 06:00 17,2 C 9,0 C 0,0 UV-I 0,0 C 53 % 86 % 0 % 1006,6 hPa 0,0 l/m 0,9 km/h (0 Bft) 0,00 h 0,00 h 1,8 km/h (1 Bft)
26.10.2011 07:00 17,2 C 9,4 C 0,0 UV-I 0,0 C 53 % 86 % 0 % 1007,3 hPa 0,0 l/m 2,1 km/h (1 Bft) 0,00 h 0,00 h 3,0 km/h (1 Bft)
26.10.2011 08:00 17,2 C 9,1 C 0,0 UV-I 0,0 C 53 % 85 % 0 % 1008,2 hPa 0,0 l/m 0,9 km/h (0 Bft) 0,00 h 0,00 h 1,3 km/h (1 Bft)
26.10.2011 09:00 17,2 C 9,8 C 0,0 UV-I 0,3 C 53 % 84 % 8 % 1009,1 hPa 0,0 l/m 0,6 km/h (0 Bft) 0,00 h 0,00 h 0,7 km/h (0 Bft)
26.10.2011 10:00 17,3 C 11,2 C 0,2 UV-I 2,3 C 53 % 80 % 59 % 1010,1 hPa 0,0 l/m 3,5 km/h (1 Bft) 0,43 h 0,00 h 5,8 km/h (2 Bft)
26.10.2011 11:00 17,6 C 12,2 C 0,3 UV-I 1,8 C 51 % 73 % 51 % 1010,5 hPa 0,0 l/m 6,9 km/h (2 Bft) 0,10 h 0,00 h 8,1 km/h (2 Bft)
26.10.2011 12:00 17,8 C 13,0 C 0,9 UV-I 2,7 C 51 % 70 % 76 % 1011,1 hPa 0,0 l/m 6,7 km/h (2 Bft) 0,43 h 0,00 h 7,0 km/h (2 Bft)
26.10.2011 13:00 18,3 C 13,9 C 1,7 UV-I 3,6 C 49 % 65 % 92 % 1011,4 hPa 0,0 l/m 7,7 km/h (2 Bft) 0,77 h 0,00 h 8,5 km/h (2 Bft)
26.10.2011 14:00 19,5 C 14,8 C 1,8 UV-I 4,0 C 47 % 61 % 90 % 1012,3 hPa 0,0 l/m 6,5 km/h (2 Bft) 0,77 h 0,00 h 7,6 km/h (2 Bft)
26.10.2011 15:00 20,7 C 15,5 C 1,6 UV-I 4,7 C 44 % 57 % 100 % 1013,1 hPa 0,0 l/m 7,2 km/h (2 Bft) 1,00 h 0,00 h 7,8 km/h (2 Bft)
26.10.2011 16:00 21,6 C 15,8 C 0,5 UV-I 4,4 C 42 % 55 % 100 % 1013,3 hPa 0,0 l/m 3,5 km/h (1 Bft) 1,00 h 0,00 h 4,1 km/h (1 Bft)
26.10.2011 17:00 21,4 C 14,3 C 0,0 UV-I 0,7 C 41 % 57 % 20 % 1013,2 hPa 0,0 l/m 1,1 km/h (1 Bft) 0,23 h 0,00 h 1,3 km/h (1 Bft)
26.10.2011 18:00 20,7 C 12,2 C 0,0 UV-I 0,0 C 43 % 64 % 0 % 1013,2 hPa 0,0 l/m 0,0 km/h (0 Bft) 0,00 h 0,00 h 0,0 km/h (0 Bft)
26.10.2011 19:00 19,8 C 10,6 C 0,0 UV-I 0,0 C 45 % 71 % 0 % 1013,7 hPa 0,0 l/m 0,8 km/h (0 Bft) 0,00 h 0,00 h 0,9 km/h (0 Bft)
26.10.2011 20:00 19,2 C 9,8 C 0,0 UV-I 0,0 C 47 % 74 % 0 % 1013,6 hPa 0,0 l/m 0,7 km/h (0 Bft) 0,00 h 0,00 h 1,2 km/h (1 Bft)
26.10.2011 21:00 18,8 C 9,1 C 0,0 UV-I 0,0 C 47 % 76 % 0 % 1013,7 hPa 0,0 l/m 0,5 km/h (0 Bft) 0,00 h 0,00 h 0,5 km/h (0 Bft)
26.10.2011 22:00 18,6 C 8,1 C 0,0 UV-I 0,0 C 48 % 79 % 0 % 1014,1 hPa 0,0 l/m 0,6 km/h (0 Bft) 0,00 h 0,00 h 0,9 km/h (0 Bft)
26.10.2011 23:00 18,2 C 7,7 C 0,0 UV-I 0,0 C 48 % 81 % 0 % 1014,2 hPa 0,0 l/m 3,0 km/h (1 Bft) 0,00 h 0,00 h 4,4 km/h (1 Bft)
27.10.2011 00:00 18,0 C 7,9 C 0,0 UV-I 0,0 C 49 % 82 % 0 % 1014,2 hPa 0,0 l/m 3,6 km/h (1 Bft) 0,00 h 0,00 h 4,1 km/h (1 Bft)
27.10.2011 01:00 17,7 C 7,0 C 0,0 UV-I 0,0 C 49 % 83 % 0 % 1014,1 hPa 0,0 l/m 3,1 km/h (1 Bft) 0,00 h 0,00 h 3,5 km/h (1 Bft)
27.10.2011 02:00 17,5 C 6,5 C 0,0 UV-I 0,0 C 50 % 85 % 0 % 1014,1 hPa 0,0 l/m 1,1 km/h (1 Bft) 0,00 h 0,00 h 1,8 km/h (1 Bft)
27.10.2011 03:00 17,4 C 6,5 C 0,0 UV-I 0,0 C 50 % 86 % 0 % 1013,9 hPa 0,0 l/m 2,9 km/h (1 Bft) 0,00 h 0,00 h 3,9 km/h (1 Bft)
27.10.2011 04:00 17,2 C 6,3 C 0,0 UV-I 0,0 C 50 % 86 % 0 % 1013,8 hPa 0,0 l/m 0,7 km/h (0 Bft) 0,00 h 0,00 h 0,9 km/h (0 Bft)
27.10.2011 05:00 17,2 C 6,1 C 0,0 UV-I 0,0 C 50 % 87 % 0 % 1013,4 hPa 0,0 l/m 3,0 km/h (1 Bft) 0,00 h 0,00 h 3,8 km/h (1 Bft)
27.10.2011 06:00 17,2 C 7,4 C 0,0 UV-I 0,0 C 51 % 87 % 0 % 1013,0 hPa 0,0 l/m 4,5 km/h (1 Bft) 0,00 h 0,00 h 5,2 km/h (1 Bft)
27.10.2011 07:00 17,1 C 7,8 C 0,0 UV-I 0,0 C 51 % 86 % 0 % 1012,6 hPa 0,0 l/m 6,3 km/h (2 Bft) 0,00 h 0,00 h 9,2 km/h (2 Bft)
27.10.2011 08:00 17,1 C 8,4 C 0,0 UV-I 0,0 C 51 % 85 % 0 % 1012,5 hPa 0,0 l/m 10,2 km/h (2 Bft) 0,00 h 0,00 h 11,4 km/h (2 Bft)
27.10.2011 09:00 17,0 C 8,6 C 0,0 UV-I 0,2 C 51 % 85 % 5 % 1012,9 hPa 0,0 l/m 9,9 km/h (2 Bft) 0,00 h 0,00 h 11,6 km/h (2 Bft)
27.10.2011 10:00 17,1 C 9,5 C 0,1 UV-I 1,6 C 52 % 84 % 42 % 1012,7 hPa 0,0 l/m 10,5 km/h (2 Bft) 0,27 h 0,00 h 11,9 km/h (2 Bft)
27.10.2011 11:00 17,4 C 11,5 C 0,6 UV-I 3,1 C 52 % 80 % 85 % 1012,5 hPa 0,0 l/m 12,4 km/h (3 Bft) 0,50 h 0,00 h 14,4 km/h (3 Bft)
27.10.2011 12:00 17,9 C 13,5 C 1,2 UV-I 3,5 C 51 % 72 % 91 % 1012,8 hPa 0,0 l/m 12,7 km/h (3 Bft) 0,70 h 0,00 h 13,9 km/h (3 Bft)
27.10.2011 13:00 18,5 C 14,9 C 2,1 UV-I 3,7 C 51 % 70 % 96 % 1012,8 hPa 0,0 l/m 13,0 km/h (3 Bft) 1,00 h 0,00 h 13,2 km/h (3 Bft)
27.10.2011 14:00 19,6 C 15,6 C 2,0 UV-I 3,3 C 50 % 69 % 91 % 1013,2 hPa 0,0 l/m 11,7 km/h (2 Bft) 0,87 h 0,00 h 12,4 km/h (3 Bft)
27.10.2011 15:00 20,0 C 14,8 C 0,5 UV-I 1,2 C 49 % 70 % 33 % 1012,7 hPa 0,0 l/m 8,2 km/h (2 Bft) 0,00 h 0,00 h 9,2 km/h (2 Bft)
27.10.2011 16:00 19,7 C 14,4 C 0,1 UV-I 0,7 C 50 % 72 % 21 % 1012,5 hPa 0,0 l/m 9,6 km/h (2 Bft) 0,23 h 0,00 h 11,1 km/h (2 Bft)
27.10.2011 17:00 19,6 C 13,8 C 0,0 UV-I 0,2 C 50 % 74 % 4 % 1012,4 hPa 0,0 l/m 13,3 km/h (3 Bft) 0,00 h 0,00 h 15,2 km/h (3 Bft)
27.10.2011 18:00 19,3 C 12,7 C 0,0 UV-I 0,0 C 51 % 78 % 0 % 1012,8 hPa 0,0 l/m 10,4 km/h (2 Bft) 0,00 h 0,00 h 11,5 km/h (2 Bft)
27.10.2011 19:00 18,8 C 11,8 C 0,0 UV-I 0,0 C 52 % 81 % 0 % 1013,2 hPa 0,0 l/m 10,1 km/h (2 Bft) 0,00 h 0,00 h 10,4 km/h (2 Bft)
27.10.2011 20:00 18,5 C 11,2 C 0,0 UV-I 0,0 C 53 % 82 % 0 % 1013,8 hPa 0,0 l/m 10,9 km/h (2 Bft) 0,00 h 0,00 h 11,8 km/h (2 Bft)
27.10.2011 21:00 18,3 C 10,9 C 0,0 UV-I 0,0 C 53 % 83 % 0 % 1014,1 hPa 0,0 l/m 11,3 km/h (2 Bft) 0,00 h 0,00 h 11,7 km/h (2 Bft)
27.10.2011 22:00 18,2 C 10,5 C 0,0 UV-I 0,0 C 53 % 84 % 0 % 1014,7 hPa 0,0 l/m 12,4 km/h (3 Bft) 0,00 h 0,00 h 13,1 km/h (3 Bft)
27.10.2011 23:00 18,1 C 10,4 C 0,0 UV-I 0,0 C 53 % 85 % 0 % 1015,0 hPa 0,0 l/m 12,2 km/h (2 Bft) 0,00 h 0,00 h 12,4 km/h (3 Bft)
28.10.2011 00:00 17,9 C 10,2 C 0,0 UV-I 0,0 C 54 % 85 % 0 % 1015,0 hPa 0,0 l/m 10,6 km/h (2 Bft) 0,00 h 0,00 h 12,0 km/h (2 Bft)
28.10.2011 01:00 17,7 C 10,0 C 0,0 UV-I 0,0 C 54 % 86 % 0 % 1015,5 hPa 0,0 l/m 8,8 km/h (2 Bft) 0,00 h 0,00 h 9,8 km/h (2 Bft)
28.10.2011 02:00 17,6 C 9,6 C 0,0 UV-I 0,0 C 55 % 86 % 0 % 1015,8 hPa 0,0 l/m 6,5 km/h (2 Bft) 0,00 h 0,00 h 6,9 km/h (2 Bft)
28.10.2011 03:00 17,5 C 9,3 C 0,0 UV-I 0,0 C 55 % 87 % 0 % 1016,3 hPa 0,0 l/m 5,2 km/h (1 Bft) 0,00 h 0,00 h 5,9 km/h (2 Bft)
28.10.2011 04:00 17,5 C 9,1 C 0,0 UV-I 0,0 C 55 % 88 % 0 % 1017,0 hPa 0,0 l/m 6,4 km/h (2 Bft) 0,00 h 0,00 h 7,9 km/h (2 Bft)
28.10.2011 05:00 17,4 C 8,8 C 0,0 UV-I 0,0 C 55 % 89 % 0 % 1017,4 hPa 0,0 l/m 4,0 km/h (1 Bft) 0,00 h 0,00 h 4,7 km/h (1 Bft)
28.10.2011 06:00 17,4 C 9,1 C 0,0 UV-I 0,0 C 55 % 89 % 0 % 1018,1 hPa 0,0 l/m 3,4 km/h (1 Bft) 0,00 h 0,00 h 5,1 km/h (1 Bft)
28.10.2011 07:00 17,4 C 9,3 C 0,0 UV-I 0,0 C 56 % 89 % 0 % 1018,8 hPa 0,0 l/m 5,7 km/h (1 Bft) 0,00 h 0,00 h 6,5 km/h (2 Bft)
28.10.2011 08:00 17,3 C 9,1 C 0,0 UV-I 0,0 C 56 % 90 % 0 % 1019,4 hPa 0,0 l/m 4,7 km/h (1 Bft) 0,00 h 0,00 h 6,0 km/h (2 Bft)
28.10.2011 09:00 17,4 C 9,5 C 0,0 UV-I 0,3 C 56 % 90 % 9 % 1020,3 hPa 0,0 l/m 5,4 km/h (1 Bft) 0,00 h 0,00 h 6,1 km/h (2 Bft)
28.10.2011 10:00 17,6 C 10,6 C 0,0 UV-I 1,1 C 56 % 89 % 33 % 1021,0 hPa 0,0 l/m 6,4 km/h (2 Bft) 0,00 h 0,00 h 6,9 km/h (2 Bft)
28.10.2011 11:00 17,7 C 12,0 C 0,5 UV-I 3,6 C 56 % 86 % 75 % 1021,7 hPa 0,0 l/m 4,1 km/h (1 Bft) 0,60 h 0,00 h 4,9 km/h (1 Bft)
28.10.2011 12:00 18,0 C 14,6 C 1,2 UV-I 6,2 C 56 % 81 % 100 % 1022,1 hPa 0,0 l/m 2,8 km/h (1 Bft) 1,00 h 0,00 h 3,3 km/h (1 Bft)
28.10.2011 13:00 18,6 C 17,0 C 2,0 UV-I 6,5 C 55 % 72 % 100 % 1022,4 hPa 0,0 l/m 2,5 km/h (1 Bft) 1,00 h 0,00 h 3,4 km/h (1 Bft)
28.10.2011 14:00 20,2 C 18,6 C 2,1 UV-I 6,4 C 53 % 67 % 100 % 1023,4 hPa 0,0 l/m 1,9 km/h (1 Bft) 1,00 h 0,00 h 2,3 km/h (1 Bft)
28.10.2011 15:00 21,4 C 19,7 C 1,2 UV-I 5,4 C 50 % 64 % 100 % 1023,9 hPa 0,0 l/m 1,9 km/h (1 Bft) 1,00 h 0,00 h 3,0 km/h (1 Bft)
28.10.2011 16:00 22,1 C 19,8 C 0,4 UV-I 4,3 C 49 % 64 % 100 % 1024,1 hPa 0,0 l/m 1,0 km/h (0 Bft) 1,00 h 0,00 h 1,7 km/h (1 Bft)
28.10.2011 17:00 21,8 C 18,0 C 0,0 UV-I 0,4 C 49 % 68 % 7 % 1024,0 hPa 0,0 l/m 0,0 km/h (0 Bft) 0,10 h 0,00 h 0,0 km/h (0 Bft)
28.10.2011 18:00 21,2 C 16,4 C 0,0 UV-I 0,0 C 51 % 74 % 0 % 1024,0 hPa 0,0 l/m 0,0 km/h (0 Bft) 0,00 h 0,00 h 0,0 km/h (0 Bft)
28.10.2011 19:00 20,7 C 14,8 C 0,0 UV-I 0,0 C 52 % 78 % 0 % 1024,6 hPa 0,0 l/m 0,0 km/h (0 Bft) 0,00 h 0,00 h 0,0 km/h (0 Bft)
28.10.2011 20:00 20,1 C 13,4 C 0,0 UV-I 0,0 C 53 % 82 % 0 % 1024,8 hPa 0,0 l/m 0,0 km/h (0 Bft) 0,00 h 0,00 h 0,0 km/h (0 Bft)
28.10.2011 21:00 19,9 C 13,2 C 0,0 UV-I 0,0 C 54 % 85 % 0 % 1024,9 hPa 0,0 l/m 0,0 km/h (0 Bft) 0,00 h 0,00 h 0,0 km/h (0 Bft)
28.10.2011 22:00 19,9 C 12,9 C 0,0 UV-I 0,0 C 55 % 85 % 0 % 1025,0 hPa 0,0 l/m 0,0 km/h (0 Bft) 0,00 h 0,00 h 0,0 km/h (0 Bft)
28.10.2011 23:00 19,8 C 12,3 C 0,0 UV-I 0,0 C 55 % 87 % 0 % 1025,2 hPa 0,0 l/m 0,0 km/h (0 Bft) 0,00 h 0,00 h 0,0 km/h (0 Bft)
29.10.2011 00:00 19,6 C 11,6 C 0,0 UV-I 0,0 C 55 % 87 % 0 % 1025,1 hPa 0,0 l/m 0,0 km/h (0 Bft) 0,00 h 0,00 h 0,0 km/h (0 Bft)
29.10.2011 01:00 19,4 C 10,7 C 0,0 UV-I 0,0 C 56 % 89 % 0 % 1025,2 hPa 0,0 l/m 0,0 km/h (0 Bft) 0,00 h 0,00 h 0,0 km/h (0 Bft)
29.10.2011 02:00 19,2 C 10,9 C 0,0 UV-I 0,0 C 56 % 90 % 0 % 1025,3 hPa 0,0 l/m 0,0 km/h (0 Bft) 0,00 h 0,00 h 0,0 km/h (0 Bft)
29.10.2011 03:00 19,2 C 11,4 C 0,0 UV-I 0,0 C 56 % 91 % 0 % 1025,1 hPa 0,0 l/m 0,0 km/h (0 Bft) 0,00 h 0,00 h 0,0 km/h (0 Bft)
29.10.2011 04:00 19,2 C 11,7 C 0,0 UV-I 0,0 C 57 % 91 % 0 % 1024,7 hPa 0,0 l/m 0,9 km/h (0 Bft) 0,00 h 0,00 h 1,6 km/h (1 Bft)
29.10.2011 05:00 19,2 C 12,1 C 0,0 UV-I 0,0 C 57 % 91 % 0 % 1024,0 hPa 0,0 l/m 0,1 km/h (0 Bft) 0,00 h 0,00 h 0,1 km/h (0 Bft)
29.10.2011 06:00 19,0 C 12,3 C 0,0 UV-I 0,0 C 58 % 91 % 0 % 1024,1 hPa 0,0 l/m 0,9 km/h (0 Bft) 0,00 h 0,00 h 1,8 km/h (1 Bft)
29.10.2011 07:00 18,9 C 12,5 C 0,0 UV-I 0,0 C 58 % 90 % 0 % 1023,8 hPa 0,0 l/m 1,3 km/h (1 Bft) 0,00 h 0,00 h 1,5 km/h (1 Bft)
29.10.2011 08:00 19,1 C 12,4 C 0,0 UV-I 0,0 C 58 % 90 % 0 % 1023,7 hPa 0,0 l/m 1,4 km/h (1 Bft) 0,00 h 0,00 h 2,0 km/h (1 Bft)
29.10.2011 09:00 19,1 C 12,5 C 0,0 UV-I 0,0 C 58 % 90 % 0 % 1023,8 hPa 0,0 l/m 1,7 km/h (1 Bft) 0,00 h 0,00 h 2,5 km/h (1 Bft)
29.10.2011 10:00 19,1 C 12,8 C 0,0 UV-I 0,0 C 58 % 89 % 0 % 1023,8 hPa 0,0 l/m 3,6 km/h (1 Bft) 0,00 h 0,00 h 5,0 km/h (1 Bft)
29.10.2011 11:00 19,1 C 13,5 C 0,0 UV-I 0,5 C 58 % 88 % 15 % 1023,8 hPa 0,0 l/m 2,6 km/h (1 Bft) 0,00 h 0,00 h 3,2 km/h (1 Bft)
29.10.2011 12:00 19,3 C 14,6 C 0,1 UV-I 1,2 C 58 % 85 % 33 % 1023,8 hPa 0,0 l/m 2,4 km/h (1 Bft) 0,00 h 0,00 h 3,4 km/h (1 Bft)
29.10.2011 13:00 19,7 C 15,5 C 0,2 UV-I 1,0 C 57 % 83 % 28 % 1023,3 hPa 0,0 l/m 3,8 km/h (1 Bft) 0,00 h 0,00 h 5,2 km/h (1 Bft)
29.10.2011 14:00 19,9 C 16,4 C 0,2 UV-I 1,0 C 57 % 79 % 28 % 1022,6 hPa 0,0 l/m 4,6 km/h (1 Bft) 0,00 h 0,00 h 4,9 km/h (1 Bft)
29.10.2011 15:00 20,3 C 17,1 C 0,4 UV-I 1,4 C 56 % 76 % 40 % 1022,2 hPa 0,0 l/m 3,7 km/h (1 Bft) 0,23 h 0,00 h 4,1 km/h (1 Bft)
29.10.2011 16:00 21,3 C 18,1 C 0,3 UV-I 2,3 C 55 % 72 % 63 % 1022,2 hPa 0,0 l/m 3,0 km/h (1 Bft) 0,87 h 0,00 h 3,0 km/h (1 Bft)
29.10.2011 17:00 21,6 C 16,6 C 0,0 UV-I 0,0 C 54 % 74 % 0 % 1022,0 hPa 0,0 l/m 0,5 km/h (0 Bft) 0,00 h 0,00 h 0,4 km/h (0 Bft)
29.10.2011 18:00 21,0 C 15,2 C 0,0 UV-I 0,0 C 55 % 78 % 0 % 1022,0 hPa 0,0 l/m 0,3 km/h (0 Bft) 0,00 h 0,00 h 0,4 km/h (0 Bft)
29.10.2011 19:00 20,5 C 14,4 C 0,0 UV-I 0,0 C 56 % 81 % 0 % 1022,0 hPa 0,0 l/m 1,0 km/h (0 Bft) 0,00 h 0,00 h 1,7 km/h (1 Bft)
29.10.2011 20:00 20,2 C 14,1 C 0,0 UV-I 0,0 C 56 % 81 % 0 % 1021,9 hPa 0,0 l/m 0,7 km/h (0 Bft) 0,00 h 0,00 h 0,8 km/h (0 Bft)
29.10.2011 21:00 20,0 C 13,4 C 0,0 UV-I 0,0 C 56 % 82 % 0 % 1021,7 hPa 0,0 l/m 0,8 km/h (0 Bft) 0,00 h 0,00 h 0,8 km/h (0 Bft)
29.10.2011 22:00 20,0 C 12,8 C 0,0 UV-I 0,0 C 57 % 84 % 0 % 1021,7 hPa 0,0 l/m 1,4 km/h (1 Bft) 0,00 h 0,17 h 1,9 km/h (1 Bft)
29.10.2011 23:00 19,8 C 12,5 C 0,0 UV-I 0,0 C 57 % 86 % 0 % 1021,5 hPa 0,1 l/m 0,8 km/h (0 Bft) 0,00 h 0,47 h 1,3 km/h (1 Bft)
30.10.2011 00:00 19,7 C 12,3 C 0,0 UV-I 0,0 C 58 % 88 % 0 % 1021,5 hPa 0,2 l/m 1,2 km/h (1 Bft) 0,00 h 0,53 h 1,6 km/h (1 Bft)
30.10.2011 01:00 19,6 C 12,2 C 0,0 UV-I 0,0 C 58 % 89 % 0 % 1021,3 hPa 0,1 l/m 0,6 km/h (0 Bft) 0,00 h 0,23 h 1,3 km/h (1 Bft)
30.10.2011 02:00 19,4 C 12,4 C 0,0 UV-I 0,0 C 59 % 90 % 0 % 1021,2 hPa 0,0 l/m 0,9 km/h (0 Bft) 0,00 h 0,00 h 1,2 km/h (1 Bft)
30.10.2011 03:00 19,3 C 12,5 C 0,0 UV-I 0,0 C 60 % 91 % 0 % 1020,9 hPa 0,0 l/m 0,5 km/h (0 Bft) 0,00 h 0,00 h 0,8 km/h (0 Bft)
30.10.2011 04:00 19,2 C 12,3 C 0,0 UV-I 0,0 C 60 % 91 % 0 % 1020,6 hPa 0,0 l/m 0,2 km/h (0 Bft) 0,00 h 0,00 h 0,3 km/h (0 Bft)
30.10.2011 05:00 19,2 C 12,1 C 0,0 UV-I 0,0 C 61 % 91 % 0 % 1020,4 hPa 0,0 l/m 0,6 km/h (0 Bft) 0,00 h 0,00 h 1,1 km/h (1 Bft)
30.10.2011 06:00 19,2 C 11,9 C 0,0 UV-I 0,0 C 61 % 92 % 0 % 1020,8 hPa 0,0 l/m 0,0 km/h (0 Bft) 0,00 h 0,00 h 0,0 km/h (0 Bft)
30.10.2011 07:00 19,1 C 12,1 C 0,0 UV-I 0,0 C 61 % 92 % 0 % 1021,2 hPa 0,0 l/m 0,1 km/h (0 Bft) 0,00 h 0,00 h 0,3 km/h (0 Bft)
30.10.2011 08:00 19,1 C 12,0 C 0,0 UV-I 0,0 C 61 % 92 % 1 % 1021,6 hPa 0,0 l/m 0,0 km/h (0 Bft) 0,00 h 0,00 h 0,0 km/h (0 Bft)
30.10.2011 09:00 19,1 C 12,9 C 0,1 UV-I 4,3 C 61 % 93 % 94 % 1021,9 hPa 0,0 l/m 0,5 km/h (0 Bft) 0,93 h 0,00 h 0,6 km/h (0 Bft)
30.10.2011 10:00 19,4 C 14,8 C 0,5 UV-I 4,6 C 61 % 91 % 100 % 1022,2 hPa 0,0 l/m 1,8 km/h (1 Bft) 1,00 h 0,00 h 2,8 km/h (1 Bft)
30.10.2011 11:00 19,8 C 16,3 C 1,1 UV-I 5,7 C 60 % 86 % 100 % 1022,6 hPa 0,0 l/m 2,6 km/h (1 Bft) 1,00 h 0,00 h 3,7 km/h (1 Bft)
30.10.2011 12:00 20,4 C 17,5 C 1,9 UV-I 5,8 C 59 % 79 % 100 % 1022,4 hPa 0,0 l/m 4,1 km/h (1 Bft) 1,00 h 0,00 h 5,8 km/h (2 Bft)
30.10.2011 13:00 21,4 C 18,1 C 1,6 UV-I 4,4 C 57 % 75 % 94 % 1022,8 hPa 0,0 l/m 5,1 km/h (1 Bft) 0,83 h 0,00 h 5,7 km/h (1 Bft)
30.10.2011 14:00 22,0 C 18,2 C 0,9 UV-I 3,5 C 56 % 73 % 89 % 1022,5 hPa 0,0 l/m 3,0 km/h (1 Bft) 0,77 h 0,00 h 3,7 km/h (1 Bft)
30.10.2011 15:00 22,6 C 18,4 C 0,4 UV-I 3,3 C 54 % 73 % 87 % 1022,3 hPa 0,0 l/m 1,5 km/h (1 Bft) 0,97 h 0,00 h 2,0 km/h (1 Bft)
30.10.2011 16:00 22,4 C 17,0 C 0,0 UV-I 0,1 C 54 % 75 % 3 % 1021,8 hPa 0,0 l/m 0,8 km/h (0 Bft) 0,00 h 0,00 h 1,3 km/h (1 Bft)
30.10.2011 17:00 21,7 C 15,5 C 0,0 UV-I 0,0 C 55 % 79 % 0 % 1021,4 hPa 0,0 l/m 0,1 km/h (0 Bft) 0,00 h 0,00 h 0,0 km/h (0 Bft)
30.10.2011 18:00 21,1 C 13,8 C 0,0 UV-I 0,0 C 56 % 82 % 0 % 1021,7 hPa 0,0 l/m 0,0 km/h (0 Bft) 0,00 h 0,00 h 0,0 km/h (0 Bft)
30.10.2011 19:00 20,6 C 12,2 C 0,0 UV-I 0,0 C 57 % 85 % 0 % 1021,9 hPa 0,0 l/m 0,0 km/h (0 Bft) 0,00 h 0,00 h 0,0 km/h (0 Bft)
30.10.2011 20:00 20,3 C 11,6 C 0,0 UV-I 0,0 C 57 % 87 % 0 % 1021,9 hPa 0,0 l/m 0,0 km/h (0 Bft) 0,00 h 0,00 h 0,0 km/h (0 Bft)
30.10.2011 21:00 20,1 C 11,2 C 0,0 UV-I 0,0 C 58 % 89 % 0 % 1022,1 hPa 0,0 l/m 0,1 km/h (0 Bft) 0,00 h 0,00 h 0,2 km/h (0 Bft)
30.10.2011 22:00 20,0 C 10,6 C 0,0 UV-I 0,0 C 57 % 89 % 0 % 1022,1 hPa 0,0 l/m 0,0 km/h (0 Bft) 0,00 h 0,00 h 0,0 km/h (0 Bft)
30.10.2011 23:00 19,8 C 9,6 C 0,0 UV-I 0,0 C 57 % 89 % 0 % 1021,9 hPa 0,0 l/m 0,0 km/h (0 Bft) 0,00 h 0,00 h 0,0 km/h (0 Bft)
Min-Datum _ 24.10.11 24.10.11 24.10.11 24.10.11 24.10.11 26.10.11 24.10.11 25.10.11 - 25.10.11 - - 24.10.11
_ Min-Zeit 09:22 08:20 00:00 00:00 16:42 16:08 00:00 15:26 - 18:12 - - 03:24
Minimum _ 15,8 C 4,8 C 0,0 UV-I 0,0 C 40 % 54 % 0 % 1001,2 hPa - 0,0 km/h (0 Bft) - - 0,0 km/h (0 Bft)
Max-Datum _ 30.10.11 28.10.11 26.10.11 28.10.11 30.10.11 30.10.11 24.10.11 28.10.11 25.10.11 25.10.11 24.10.11 25.10.11 24.10.11
_ Max-Zeit 15:44 16:18 14:04 13:34 09:42 07:36 10:34 23:46 02:50 02:18 10:06 02:34 09:14
Maximum _ 22,8 C 20,3 C 3,0 UV-I 6,9 C 62 % 93 % 100 % 1025,4 hPa 0,6 l/m 17,7 km/h
O-SO (3 Bft)
0,03 h 0,03 h 42,5 km/h
SO (6 Bft)
Durchschnitt _ 18,6 C 11,6 C 0,2 UV-I 0,8 C 52 % 79 % 19 % 1014,1 hPa #2,2 l/m 4,8 km/h (1 Bft) #28:38 h #5:08 h 5,6 km/h (1 Bft)
© 2012 W. Hausmann